Time;durP1;ratioP1;P1;durP2;ratioP2;P2;SDS_P1;SDS_P2;PMS_P1;PMS_P2;Temp;Humidity;BMP_temperature;BMP_pressure;BME280_temperature;BME280_humidity;BME280_pressure;Samples;Min_cycle;Max_cycle;Signal;HPM_P1;HPM_P2
2021/08/26 00:23:24;;;;;;;6.13;3.40;;;;;;;15.09;92.02;99584.41;21211344;82;85284;-88
2021/08/26 00:53:25;;;;;;;4.30;2.43;;;;;;;15.16;90.44;99547.60;21194957;81;99231;-84
2021/08/26 01:23:32;;;;;;;5.90;2.95;;;;;;;14.98;90.20;99507.66;21082202;80;99516;-85
2021/08/26 01:53:33;;;;;;;8.00;3.33;;;;;;;14.81;91.71;99489.39;21069124;80;99531;-82
2021/08/26 02:23:34;;;;;;;8.08;4.12;;;;;;;14.75;91.74;99461.42;21047587;80;99496;-83
2021/08/26 02:53:35;;;;;;;9.65;5.22;;;;;;;14.65;92.13;99445.81;21027798;81;99779;-84
2021/08/26 03:23:36;;;;;;;10.82;6.05;;;;;;;14.76;92.98;99435.88;21082390;81;99766;-84
2021/08/26 03:53:37;;;;;;;9.63;5.53;;;;;;;14.89;93.82;99416.78;21067106;81;99963;-85
2021/08/26 04:23:37;;;;;;;13.20;6.10;;;;;;;14.87;93.36;99436.45;21035015;80;99258;-86
2021/08/26 04:53:38;;;;;;;12.88;6.80;;;;;;;14.78;93.69;99422.40;21018436;80;99327;-85
2021/08/26 05:23:39;;;;;;;;;;;;;;;14.92;94.19;99405.45;21118504;80;99421;-87
2021/08/26 05:53:40;;;;;;;15.70;8.47;;;;;;;15.11;96.70;99421.25;21095643;80;85488;-82
2021/08/26 06:23:41;;;;;;;14.70;6.67;;;;;;;15.50;95.45;99412.20;21029032;81;99582;-84
2021/08/26 06:53:42;;;;;;;11.67;5.97;;;;;;;16.29;93.36;99435.45;21033246;82;99548;-83
2021/08/26 07:41:57;;;;;;;5.63;2.23;;;;;;;16.29;87.37;99436.08;21414359;78;36252;-83
2021/08/26 08:11:57;;;;;;;5.35;2.00;;;;;;;16.82;84.86;99433.95;20683860;82;99122;-81
2021/08/26 08:42:02;;;;;;;8.57;3.50;;;;;;;17.49;80.28;99439.00;20722234;82;99126;-81
2021/08/26 09:12:04;;;;;;;7.72;3.30;;;;;;;18.48;80.26;99405.10;20798465;82;190755;-84
2021/08/26 10:07:33;;;;;;;1.15;0.70;;;;;;;18.87;73.89;99467.16;22114928;75;33139;-82
2021/08/26 11:01:48;;;;;;;3.08;0.60;;;;;;;19.19;76.43;99446.41;21720281;78;32889;-89
2021/08/26 11:32:03;;;;;;;2.77;0.62;;;;;;;20.05;70.72;99488.70;21632630;80;99806;-86
2021/08/26 12:02:27;;;;;;;1.73;0.60;;;;;;;18.54;74.48;99516.14;21334581;81;99380;-83
2021/08/26 12:32:33;;;;;;;3.60;0.57;;;;;;;18.62;76.65;99504.91;21323182;81;99493;-83
2021/08/26 13:02:34;;;;;;;1.40;0.50;;;;;;;19.38;76.12;99510.22;21646045;80;99583;-84
2021/08/26 13:32:38;;;;;;;3.02;0.72;;;;;;;19.80;73.06;99518.91;21660299;80;98972;-82
2021/08/26 14:02:39;;;;;;;1.45;0.30;;;;;;;19.01;70.96;99528.59;21351339;81;2016311;-83
2021/08/26 14:32:40;;;;;;;2.23;0.20;;;;;;;18.76;67.28;99526.71;21386416;80;348015;-84
2021/08/26 15:02:44;;;;;;;49.95;17.65;;;;;;;19.12;66.85;99532.52;21383372;81;99496;-88
2021/08/26 15:32:45;;;;;;;0.68;0.42;;;;;;;19.00;64.67;99543.14;21399187;80;173296;-85
2021/08/26 16:02:47;;;;;;;0.30;0.20;;;;;;;18.66;62.57;99562.70;21485333;80;99573;-85
2021/08/26 16:32:49;;;;;;;1.47;0.40;;;;;;;18.19;62.79;99573.66;21400246;80;5276435;-83
2021/08/26 17:02:50;;;;;;;3.08;0.60;;;;;;;17.60;64.36;99590.30;21569312;80;99471;-82
2021/08/26 17:32:51;;;;;;;1.65;0.57;;;;;;;16.66;67.19;99606.28;21570983;81;99076;-83
2021/08/26 18:02:54;;;;;;;1.62;1.02;;;;;;;16.66;67.19;99606.28;21549505;80;99557;-84
2021/08/26 18:32:55;;;;;;;6.00;2.50;;;;;;;15.97;69.84;99635.34;21613472;81;99216;-83
2021/08/26 19:02:55;;;;;;;9.43;3.75;;;;;;;15.44;72.26;99655.18;21592401;80;2296136;-83
2021/08/26 19:32:57;;;;;;;3.10;1.20;;;;;;;15.03;74.68;99685.85;21602633;80;99859;-84
2021/08/26 20:02:58;;;;;;;4.03;1.60;;;;;;;14.77;76.70;99708.29;21583257;80;99376;-83
2021/08/26 20:33:01;;;;;;;7.05;3.02;;;;;;;14.55;78.15;99716.77;21593459;80;99428;-83
2021/08/26 21:03:02;;;;;;;4.60;1.70;;;;;;;14.46;79.95;99730.39;21451613;80;99591;-83
2021/08/26 21:33:03;;;;;;;2.77;1.27;;;;;;;14.35;79.92;99726.20;21453575;80;99395;-84
2021/08/26 22:03:04;;;;;;;4.00;1.17;;;;;;;14.29;79.99;99745.26;21595766;80;99403;-84
2021/08/26 22:33:06;;;;;;;2.22;1.22;;;;;;;14.17;80.77;99751.34;21617771;80;99583;-84
2021/08/26 23:03:07;;;;;;;2.30;1.05;;;;;;;14.04;81.80;99764.18;21425873;81;99657;-85
2021/08/26 23:33:08;;;;;;;2.70;1.20;;;;;;;13.97;81.47;99761.52;21398429;81;99210;-85
